Time;durP1;ratioP1;P1;durP2;ratioP2;P2;SDS_P1;SDS_P2;PMS_P1;PMS_P2;Temp;Humidity;BMP_temperature;BMP_pressure;BME280_temperature;BME280_humidity;BME280_pressure;Samples;Min_cycle;Max_cycle;Signal;HPM_P1;HPM_P2
2022/11/09 06:16:25;;;;;;;7.00;6.30;;;5.20;99.90;;;;;;4972555;28;2271446;-83
2022/11/09 06:18:50;;;;;;;14.07;7.83;;;5.20;99.90;;;;;;5056870;28;20219;-88
2022/11/09 06:21:16;;;;;;;8.37;6.70;;;5.20;99.90;;;;;;5041887;28;20252;-84
2022/11/09 06:23:42;;;;;;;16.20;10.10;;;5.20;99.90;;;;;;5054989;28;20222;-87
2022/11/09 06:26:10;;;;;;;12.67;8.63;;;5.10;99.90;;;;;;5058793;28;20183;-87
2022/11/09 06:28:37;;;;;;;12.13;7.63;;;5.10;99.90;;;;;;5054319;28;20209;-87
2022/11/09 06:31:05;;;;;;;11.57;7.30;;;5.10;99.90;;;;;;5055167;28;20168;-86
2022/11/09 06:33:33;;;;;;;9.53;6.33;;;5.20;99.90;;;;;;5055432;28;20172;-87
2022/11/09 06:35:59;;;;;;;7.50;5.93;;;5.20;99.90;;;;;;5054741;28;20287;-88
2022/11/09 06:38:25;;;;;;;6.03;5.13;;;5.30;99.90;;;;;;5058044;28;20258;-88
2022/11/09 06:40:53;;;;;;;11.30;6.27;;;5.20;99.90;;;;;;5063065;28;20203;-84
2022/11/09 06:43:19;;;;;;;10.00;6.50;;;5.30;99.90;;;;;;5047512;28;20213;-88
2022/11/09 06:45:45;;;;;;;7.17;6.00;;;5.40;99.90;;;;;;5054270;28;20199;-88
2022/11/09 06:48:11;;;;;;;6.07;5.47;;;5.40;99.90;;;;;;5053882;28;20296;-88
2022/11/09 06:50:36;;;;;;;8.77;6.37;;;5.40;99.90;;;;;;5053900;28;20249;-89
2022/11/09 06:53:05;;;;;;;7.67;5.63;;;5.40;99.90;;;;;;5053814;28;20256;-88
2022/11/09 06:55:33;;;;;;;9.33;6.73;;;5.40;99.90;;;;;;5053813;28;20201;-88
2022/11/09 06:57:59;;;;;;;8.93;6.33;;;5.40;99.90;;;;;;5036457;28;20271;-85
2022/11/09 07:00:27;;;;;;;8.13;6.27;;;5.30;99.90;;;;;;5057045;28;20178;-80
2022/11/09 07:02:53;;;;;;;10.90;6.63;;;5.30;99.90;;;;;;5055351;28;20182;-85
2022/11/09 07:05:19;;;;;;;11.07;7.13;;;5.30;99.90;;;;;;5062108;28;20309;-81
2022/11/09 07:07:45;;;;;;;9.77;6.93;;;5.30;99.90;;;;;;5058118;28;20176;-80
2022/11/09 07:10:10;;;;;;;10.80;6.90;;;5.40;99.90;;;;;;5057500;28;20173;-85
2022/11/09 07:12:36;;;;;;;9.37;6.83;;;5.50;99.90;;;;;;5057109;28;20180;-81
2022/11/09 07:15:04;;;;;;;9.30;7.10;;;5.50;99.90;;;;;;5056292;28;20299;-82
2022/11/09 07:17:33;;;;;;;8.73;6.50;;;5.50;99.90;;;;;;5056473;28;20260;-80
2022/11/09 07:19:59;;;;;;;6.80;5.93;;;5.50;99.90;;;;;;5056452;28;20261;-81
2022/11/09 07:22:28;;;;;;;7.20;6.27;;;5.70;99.90;;;;;;5057107;28;20534;-80
2022/11/09 07:24:54;;;;;;;5.97;5.37;;;5.90;99.90;;;;;;5056425;28;20267;-81
2022/11/09 07:27:21;;;;;;;6.27;5.63;;;6.00;99.90;;;;;;5056421;28;20182;-80
2022/11/09 07:29:47;;;;;;;6.20;5.60;;;6.00;99.90;;;;;;5042478;28;20181;-85
2022/11/09 07:32:12;;;;;;;6.57;5.67;;;6.00;99.90;;;;;;5057286;28;20170;-87
2022/11/09 07:34:38;;;;;;;8.73;5.83;;;6.10;99.90;;;;;;5039050;28;20206;-83
2022/11/09 07:37:04;;;;;;;6.23;5.50;;;6.20;99.90;;;;;;5058934;28;20186;-84
2022/11/09 07:39:30;;;;;;;7.17;6.00;;;6.20;99.90;;;;;;5065828;28;20538;-82
2022/11/09 07:41:56;;;;;;;8.47;6.37;;;6.20;99.90;;;;;;5059260;28;20185;-84
2022/11/09 07:44:22;;;;;;;6.87;5.50;;;6.30;99.90;;;;;;5056413;28;20176;-85
2022/11/09 07:46:48;;;;;;;6.40;5.67;;;6.40;99.90;;;;;;5056404;28;20249;-80
2022/11/09 07:49:15;;;;;;;8.80;5.90;;;6.50;99.90;;;;;;5055966;28;20187;-84
2022/11/09 07:51:42;;;;;;;6.30;5.70;;;6.60;99.90;;;;;;5056189;28;20224;-83
2022/11/09 07:54:09;;;;;;;9.63;6.23;;;6.80;99.90;;;;;;5056157;28;20172;-80
2022/11/09 07:56:36;;;;;;;6.77;6.00;;;6.80;99.90;;;;;;5055965;28;20186;-80
2022/11/09 07:59:02;;;;;;;8.73;6.07;;;6.90;99.90;;;;;;5038453;28;20186;-80
2022/11/09 08:01:28;;;;;;;9.20;6.33;;;7.00;99.90;;;;;;5056423;28;20246;-87
2022/11/09 08:03:54;;;;;;;11.70;6.43;;;7.10;99.90;;;;;;5056816;28;20646;-85
2022/11/09 08:06:21;;;;;;;8.20;6.27;;;7.20;99.90;;;;;;5039483;28;20655;-87
2022/11/09 08:08:48;;;;;;;8.23;6.63;;;7.20;99.90;;;;;;5058829;28;20264;-87
2022/11/09 08:11:14;;;;;;;9.03;7.30;;;7.30;99.90;;;;;;5056948;28;20170;-86
2022/11/09 08:13:40;;;;;;;9.70;7.60;;;7.30;99.90;;;;;;5039522;28;20722;-86
2022/11/09 08:16:06;;;;;;;10.53;7.60;;;7.40;99.90;;;;;;5056515;28;20258;-85
2022/11/09 08:18:32;;;;;;;11.67;8.80;;;7.50;99.90;;;;;;5060268;28;20245;-82
2022/11/09 08:21:02;;;;;;;11.03;8.13;;;7.50;99.90;;;;;;5060013;28;20181;-83
2022/11/09 08:23:28;;;;;;;10.93;9.10;;;7.50;99.90;;;;;;5040236;28;20701;-84
2022/11/09 08:25:54;;;;;;;12.30;9.20;;;7.50;99.90;;;;;;5058921;28;20259;-85
2022/11/09 08:28:21;;;;;;;13.73;9.47;;;7.60;99.90;;;;;;5039171;28;20207;-87
2022/11/09 08:30:55;;;;;;;10.97;9.33;;;7.60;99.90;;;;;;5059120;28;20187;-87
2022/11/09 08:33:21;;;;;;;12.50;9.20;;;7.60;99.90;;;;;;5039822;28;20241;-85
2022/11/09 08:35:46;;;;;;;13.20;9.70;;;7.70;99.90;;;;;;5056386;28;20540;-86
2022/11/09 08:38:12;;;;;;;13.90;9.93;;;7.70;99.90;;;;;;5055715;28;20213;-85
2022/11/09 08:40:38;;;;;;;18.53;9.60;;;7.80;99.90;;;;;;5038259;28;20191;-85
2022/11/09 08:43:06;;;;;;;11.77;9.00;;;7.80;99.90;;;;;;5062628;28;20196;-81
2022/11/09 08:45:35;;;;;;;12.33;9.33;;;7.80;99.90;;;;;;5059247;28;20262;-82
2022/11/09 08:48:02;;;;;;;12.23;8.73;;;7.90;99.90;;;;;;5038031;28;20768;-85
2022/11/09 08:50:29;;;;;;;10.17;8.30;;;7.90;99.90;;;;;;5061003;28;20225;-81
2022/11/09 08:52:55;;;;;;;12.33;8.63;;;7.90;99.90;;;;;;5059127;28;20184;-86
2022/11/09 08:55:21;;;;;;;15.67;9.87;;;8.00;99.90;;;;;;5054869;28;20295;-81
2022/11/09 08:57:47;;;;;;;17.40;10.53;;;8.10;99.90;;;;;;5057057;28;20213;-80
2022/11/09 09:00:14;;;;;;;11.60;9.07;;;8.10;99.90;;;;;;5055424;28;20532;-80
2022/11/09 09:02:40;;;;;;;13.43;9.10;;;8.30;99.90;;;;;;5054708;28;20174;-80
2022/11/09 09:05:06;;;;;;;12.70;9.60;;;8.30;99.90;;;;;;5036939;28;20202;-80
2022/11/09 09:07:32;;;;;;;10.67;8.37;;;8.40;99.90;;;;;;5054282;28;20168;-81
2022/11/09 09:09:58;;;;;;;10.83;8.53;;;8.50;99.90;;;;;;5068440;28;20543;-85
2022/11/09 09:12:24;;;;;;;14.43;9.40;;;8.50;99.90;;;;;;5065173;28;20179;-84
2022/11/09 09:14:50;;;;;;;12.97;8.70;;;8.50;99.90;;;;;;5056441;28;20219;-85
2022/11/09 09:17:16;;;;;;;10.60;8.63;;;8.70;99.90;;;;;;5055034;28;20203;-82
2022/11/09 09:19:42;;;;;;;12.43;8.83;;;8.80;99.90;;;;;;5057095;28;20180;-83
2022/11/09 09:22:08;;;;;;;10.17;8.37;;;8.70;99.90;;;;;;5055660;28;20171;-82
2022/11/09 09:24:34;;;;;;;12.60;9.07;;;8.70;99.90;;;;;;5055366;28;20172;-86
2022/11/09 09:27:00;;;;;;;10.57;7.60;;;8.80;99.90;;;;;;5057616;28;20179;-86
2022/11/09 09:29:26;;;;;;;10.20;7.77;;;8.80;99.90;;;;;;5055236;28;20186;-84
2022/11/09 09:31:51;;;;;;;11.07;7.63;;;8.90;99.90;;;;;;5054965;28;20560;-84
2022/11/09 09:34:17;;;;;;;11.57;7.80;;;9.00;99.90;;;;;;5054731;28;20535;-82
2022/11/09 09:36:43;;;;;;;8.67;7.73;;;8.90;99.90;;;;;;5060192;28;20589;-82
2022/11/09 09:39:09;;;;;;;9.20;7.77;;;9.00;99.90;;;;;;5055068;28;20242;-80
2022/11/09 09:42:04;;;;;;;9.70;7.60;;;9.00;99.90;;;;;;5054018;28;20179;-84
2022/11/09 09:44:33;;;;;;;8.23;7.33;;;9.10;99.90;;;;;;5051812;28;20270;-82
2022/11/09 09:47:16;;;;;;;8.93;7.47;;;9.10;99.90;;;;;;5054046;28;20178;-85
2022/11/09 09:50:01;;;;;;;8.77;7.63;;;9.20;99.90;;;;;;5036898;28;20278;-85
2022/11/09 09:52:44;;;;;;;11.10;6.80;;;9.20;99.90;;;;;;5055322;28;20263;-87
2022/11/09 09:55:35;;;;;;;7.93;6.77;;;9.30;99.90;;;;;;5056410;28;20217;-83
2022/11/09 09:58:26;;;;;;;9.13;6.70;;;9.30;99.90;;;;;;5048162;28;20194;-86
2022/11/09 10:01:09;;;;;;;7.93;6.70;;;9.40;99.90;;;;;;5065049;28;20169;-83
2022/11/09 10:03:36;;;;;;;11.40;6.67;;;9.50;99.90;;;;;;5053165;28;20165;-80
2022/11/09 10:06:05;;;;;;;8.00;6.60;;;9.50;99.90;;;;;;5053017;28;20605;-81
2022/11/09 10:08:51;;;;;;;9.77;6.70;;;9.50;99.90;;;;;;5053414;28;20185;-84
2022/11/09 10:11:38;;;;;;;7.60;6.67;;;9.60;99.90;;;;;;5054040;28;20639;-86
2022/11/09 10:14:22;;;;;;;7.40;6.70;;;9.70;99.90;;;;;;5035814;28;20213;-83
2022/11/09 10:17:00;;;;;;;10.67;6.93;;;9.70;99.90;;;;;;5053994;28;20185;-84
2022/11/09 10:19:35;;;;;;;11.40;7.77;;;9.70;99.90;;;;;;5036496;28;20717;-82
2022/11/09 10:22:18;;;;;;;8.40;7.07;;;9.80;99.90;;;;;;5056554;28;20237;-83
2022/11/09 10:25:02;;;;;;;9.53;6.87;;;9.90;99.90;;;;;;5054846;28;20262;-87
2022/11/09 10:27:55;;;;;;;7.67;6.73;;;9.90;99.90;;;;;;5055828;28;20229;-83
2022/11/09 10:30:22;;;;;;;8.67;6.50;;;10.00;99.90;;;;;;5057118;28;20168;-81
2022/11/09 10:32:53;;;;;;;9.47;6.70;;;10.00;99.90;;;;;;5019829;28;20249;-81
2022/11/09 10:35:24;;;;;;;7.17;6.47;;;10.00;99.90;;;;;;5052956;28;20761;-80
2022/11/09 10:37:51;;;;;;;7.90;6.73;;;10.10;99.90;;;;;;5060216;28;20174;-85
2022/11/09 10:40:36;;;;;;;9.10;6.57;;;10.10;99.90;;;;;;5064329;28;20175;-80
2022/11/09 10:43:09;;;;;;;7.90;6.77;;;10.10;99.90;;;;;;5059648;28;20171;-83
2022/11/09 10:45:37;;;;;;;7.27;6.20;;;10.20;99.90;;;;;;5059414;28;20636;-81
2022/11/09 10:48:06;;;;;;;6.87;6.17;;;10.10;99.90;;;;;;5059442;28;20589;-82
2022/11/09 10:50:36;;;;;;;7.17;6.23;;;10.20;99.90;;;;;;5065983;28;20191;-83
2022/11/09 10:53:26;;;;;;;6.60;6.00;;;10.20;99.90;;;;;;5061655;28;20171;-84
2022/11/09 10:55:59;;;;;;;8.10;6.43;;;10.20;99.90;;;;;;5060692;28;20196;-86
2022/11/09 10:58:33;;;;;;;7.87;5.87;;;10.30;99.90;;;;;;5063011;28;20211;-86
2022/11/09 11:01:04;;;;;;;7.30;6.60;;;10.30;99.90;;;;;;5061833;28;20176;-86
2022/11/09 11:03:34;;;;;;;8.37;6.27;;;10.40;99.90;;;;;;5059985;28;20317;-85
2022/11/09 11:06:30;;;;;;;6.93;6.23;;;10.40;99.90;;;;;;5060111;28;20156;-84
2022/11/09 11:09:04;;;;;;;6.60;5.90;;;10.40;99.90;;;;;;5060388;28;20176;-85
2022/11/09 11:11:35;;;;;;;9.40;6.07;;;10.50;99.90;;;;;;5042168;28;20270;-83
2022/11/09 11:14:16;;;;;;;8.03;6.30;;;10.60;99.90;;;;;;5061922;28;20167;-87
2022/11/09 11:16:42;;;;;;;7.37;6.33;;;10.60;99.90;;;;;;5065647;28;20230;-88
2022/11/09 11:19:31;;;;;;;6.83;6.10;;;10.60;99.90;;;;;;5069807;28;20182;-85
2022/11/09 11:22:18;;;;;;;7.07;5.87;;;10.60;99.90;;;;;;5048553;28;20644;-87
2022/11/09 11:24:57;;;;;;;6.87;6.17;;;10.60;99.90;;;;;;5043065;28;20182;-86
2022/11/09 11:27:38;;;;;;;6.10;5.60;;;10.70;99.90;;;;;;5043045;28;20546;-87
2022/11/09 11:30:10;;;;;;;7.50;6.27;;;10.80;99.90;;;;;;5046446;28;20216;-81
2022/11/09 11:32:36;;;;;;;6.73;5.93;;;10.80;99.90;;;;;;5046919;28;20187;-87
2022/11/09 11:35:16;;;;;;;6.10;5.60;;;10.90;99.90;;;;;;5072113;28;20208;-86
2022/11/09 11:37:54;;;;;;;6.43;5.77;;;10.90;99.90;;;;;;5060169;28;20185;-85
2022/11/09 11:40:31;;;;;;;5.83;5.27;;;11.00;99.90;;;;;;5059774;28;20168;-85
2022/11/09 11:43:17;;;;;;;5.93;5.43;;;11.00;99.90;;;;;;5067122;28;20167;-87
2022/11/09 11:46:10;;;;;;;7.20;5.47;;;11.10;99.90;;;;;;5065626;28;20173;-87
2022/11/09 11:49:10;;;;;;;6.93;6.23;;;11.10;99.90;;;;;;5058940;28;20235;-85
2022/11/09 11:51:57;;;;;;;6.33;5.67;;;11.10;99.90;;;;;;5025380;28;20262;-85
2022/11/09 11:54:49;;;;;;;6.37;5.77;;;11.20;99.90;;;;;;5038269;28;20244;-85
2022/11/09 11:57:46;;;;;;;6.70;6.10;;;11.20;99.90;;;;;;5038585;28;20190;-82
2022/11/09 12:00:17;;;;;;;6.43;5.83;;;11.30;99.90;;;;;;5050025;28;20193;-85
2022/11/09 12:03:05;;;;;;;6.23;5.63;;;11.30;99.90;;;;;;5062497;28;20203;-85
2022/11/09 12:05:53;;;;;;;8.40;6.17;;;11.40;99.90;;;;;;5062512;28;20209;-81
2022/11/09 12:08:53;;;;;;;9.20;6.60;;;11.40;99.90;;;;;;5061118;28;20184;-84
2022/11/09 12:11:53;;;;;;;6.53;5.90;;;11.40;99.90;;;;;;5042064;28;20176;-82
2022/11/09 12:14:40;;;;;;;6.63;5.93;;;11.40;99.90;;;;;;5055717;28;20226;-83
2022/11/09 12:17:28;;;;;;;9.00;5.90;;;11.50;99.90;;;;;;5055548;28;20708;-81
2022/11/09 12:20:26;;;;;;;6.90;5.87;;;11.70;99.90;;;;;;5038651;28;20295;-84
2022/11/09 12:23:37;;;;;;;5.67;5.17;;;11.80;99.90;;;;;;5037443;28;20176;-79
2022/11/09 12:26:15;;;;;;;6.40;5.80;;;11.70;99.90;;;;;;5051541;28;20185;-85
2022/11/09 12:29:07;;;;;;;8.17;5.80;;;11.70;99.90;;;;;;5056317;28;20194;-86
2022/11/09 12:31:32;;;;;;;7.07;6.13;;;11.70;99.90;;;;;;5032025;28;20180;-87
2022/11/09 12:34:16;;;;;;;7.93;6.63;;;11.60;99.90;;;;;;5038993;28;20242;-87
2022/11/09 12:36:57;;;;;;;10.07;6.23;;;11.60;99.90;;;;;;5055735;28;20272;-88
2022/11/09 12:39:30;;;;;;;6.60;6.00;;;11.60;99.90;;;;;;5056095;28;20171;-85
2022/11/09 12:42:03;;;;;;;10.27;7.17;;;11.50;99.90;;;;;;5037954;28;20192;-88
2022/11/09 12:44:34;;;;;;;9.43;7.27;;;11.50;99.90;;;;;;5055990;28;20168;-88
2022/11/09 12:47:15;;;;;;;11.63;7.27;;;11.50;99.90;;;;;;5056979;28;20634;-88
2022/11/09 12:49:44;;;;;;;16.27;7.57;;;11.50;99.90;;;;;;5056639;28;20605;-89
2022/11/09 12:52:14;;;;;;;10.03;6.87;;;11.50;99.90;;;;;;5038350;28;20524;-82
2022/11/09 12:54:46;;;;;;;7.33;6.60;;;11.50;99.90;;;;;;5055481;28;20210;-87
2022/11/09 12:57:24;;;;;;;10.20;6.30;;;11.50;99.90;;;;;;5056456;28;20189;-86
2022/11/09 12:59:52;;;;;;;8.33;7.07;;;11.60;99.90;;;;;;5056608;28;20631;-86
2022/11/09 13:02:30;;;;;;;8.13;6.80;;;11.60;99.90;;;;;;5055243;28;20254;-87
2022/11/09 13:04:58;;;;;;;7.23;6.43;;;11.60;99.90;;;;;;5037523;28;20188;-86
2022/11/09 13:07:48;;;;;;;10.30;6.50;;;11.60;99.90;;;;;;5037770;28;20290;-85
2022/11/09 13:10:34;;;;;;;7.60;6.73;;;11.60;99.90;;;;;;5057097;28;20179;-88
2022/11/09 13:13:06;;;;;;;8.77;6.30;;;11.60;99.90;;;;;;5067456;28;20170;-88
2022/11/09 13:15:56;;;;;;;9.53;7.20;;;11.70;99.90;;;;;;5054880;28;20224;-86
2022/11/09 13:18:29;;;;;;;7.43;6.73;;;11.70;99.90;;;;;;5054572;28;20210;-85
2022/11/09 13:20:55;;;;;;;8.90;7.00;;;11.60;99.90;;;;;;5055944;28;20559;-85
2022/11/09 13:23:36;;;;;;;7.70;6.90;;;11.70;99.90;;;;;;5041494;28;20186;-88
2022/11/09 13:26:03;;;;;;;7.80;7.00;;;11.70;99.90;;;;;;5036585;28;20226;-88
2022/11/09 13:28:32;;;;;;;11.00;8.00;;;11.70;99.90;;;;;;5036642;28;20678;-81
2022/11/09 13:31:03;;;;;;;10.93;8.27;;;11.70;99.90;;;;;;5062678;28;20203;-82
2022/11/09 13:33:32;;;;;;;7.97;7.07;;;11.70;99.90;;;;;;5043045;28;20274;-87
2022/11/09 13:36:07;;;;;;;7.80;7.00;;;11.70;99.90;;;;;;5055971;28;20215;-83
2022/11/09 13:38:34;;;;;;;7.40;6.70;;;11.80;99.90;;;;;;5038830;28;20535;-82
2022/11/09 13:41:02;;;;;;;8.07;6.73;;;11.70;99.90;;;;;;5044513;28;20249;-82
2022/11/09 13:43:33;;;;;;;7.47;6.77;;;11.70;99.90;;;;;;5044784;28;20273;-83
2022/11/09 13:46:03;;;;;;;7.23;6.53;;;11.70;99.90;;;;;;5064290;28;20203;-84
2022/11/09 13:48:40;;;;;;;6.67;6.07;;;11.70;99.90;;;;;;5037086;28;20594;-86
2022/11/09 13:51:18;;;;;;;8.97;7.03;;;11.70;99.90;;;;;;5055186;28;20229;-86
2022/11/09 13:54:00;;;;;;;7.20;6.50;;;11.70;99.90;;;;;;5037082;28;20181;-85
2022/11/09 13:56:30;;;;;;;7.67;6.73;;;11.70;99.90;;;;;;5037216;28;20311;-81
2022/11/09 13:59:06;;;;;;;10.30;8.90;;;11.70;99.90;;;;;;5058485;28;20183;-84
2022/11/09 14:01:49;;;;;;;7.03;6.43;;;11.80;99.90;;;;;;5057828;28;20617;-84
2022/11/09 14:04:29;;;;;;;13.03;9.53;;;11.90;99.90;;;;;;5054409;28;20215;-87
2022/11/09 14:07:22;;;;;;;9.13;7.33;;;11.80;99.90;;;;;;5054067;28;20238;-85
2022/11/09 14:10:12;;;;;;;7.77;6.97;;;11.80;99.90;;;;;;5047664;28;20192;-85
2022/11/09 14:12:41;;;;;;;7.20;6.50;;;11.70;99.90;;;;;;5056271;28;20171;-86
2022/11/09 14:15:29;;;;;;;7.80;7.03;;;11.80;99.90;;;;;;5053376;28;20231;-89
2022/11/09 14:18:20;;;;;;;8.47;7.07;;;11.70;99.90;;;;;;5014650;28;20221;-88
2022/11/09 14:20:58;;;;;;;6.93;6.10;;;11.70;99.90;;;;;;5035791;28;20638;-84
2022/11/09 14:23:29;;;;;;;8.27;6.60;;;11.70;99.90;;;;;;5053412;28;20160;-82
2022/11/09 14:25:55;;;;;;;7.13;6.10;;;11.70;99.90;;;;;;5054321;28;20233;-81
2022/11/09 14:28:30;;;;;;;7.27;6.57;;;11.70;99.90;;;;;;5035604;28;20187;-82
2022/11/09 14:30:56;;;;;;;6.50;5.90;;;11.70;99.90;;;;;;5052836;28;20570;-80
2022/11/09 14:33:33;;;;;;;8.10;6.30;;;11.60;99.90;;;;;;5037767;28;20233;-88
2022/11/09 14:36:01;;;;;;;7.23;6.53;;;11.60;99.90;;;;;;5058999;28;20214;-82
2022/11/09 14:38:39;;;;;;;8.50;7.10;;;11.60;99.90;;;;;;5059148;28;20183;-86
2022/11/09 14:41:21;;;;;;;7.80;6.70;;;11.60;99.90;;;;;;5064166;28;20237;-81
2022/11/09 14:43:47;;;;;;;9.30;7.60;;;11.60;99.90;;;;;;5062295;28;20205;-82
2022/11/09 14:46:22;;;;;;;7.97;7.13;;;11.50;99.90;;;;;;5053873;28;21019;-83
2022/11/09 14:48:52;;;;;;;11.33;8.33;;;11.40;99.90;;;;;;5054259;28;20176;-81
2022/11/09 14:51:19;;;;;;;10.20;8.87;;;11.40;99.90;;;;;;5060919;28;20513;-84
2022/11/09 14:53:47;;;;;;;11.30;8.73;;;11.00;99.90;;;;;;5054172;28;20193;-85
2022/11/09 14:56:18;;;;;;;12.07;9.37;;;10.80;99.90;;;;;;5056788;28;20272;-86
2022/11/09 14:58:45;;;;;;;13.97;9.47;;;10.50;99.90;;;;;;5053590;28;20179;-85
2022/11/09 15:01:17;;;;;;;11.47;9.83;;;10.30;99.90;;;;;;5068334;28;20603;-81
2022/11/09 15:03:44;;;;;;;10.87;9.30;;;10.20;99.90;;;;;;5056257;28;20180;-88
2022/11/09 15:06:15;;;;;;;12.57;9.93;;;10.10;99.90;;;;;;5056997;28;20179;-85
2022/11/09 15:08:54;;;;;;;12.87;9.90;;;9.90;99.90;;;;;;5053710;28;20551;-85
2022/11/09 15:11:29;;;;;;;10.50;9.30;;;9.80;99.90;;;;;;5057592;28;20171;-86
2022/11/09 15:13:55;;;;;;;11.27;8.80;;;9.70;99.90;;;;;;5041397;28;20247;-83
2022/11/09 15:16:28;;;;;;;10.73;9.07;;;9.60;99.90;;;;;;5035780;28;20797;-87
2022/11/09 15:18:54;;;;;;;12.43;8.80;;;9.60;99.90;;;;;;5053718;28;20199;-88
2022/11/09 15:21:34;;;;;;;13.40;9.83;;;9.60;99.90;;;;;;5035997;28;20187;-88
2022/11/09 15:24:08;;;;;;;13.60;10.40;;;9.50;99.90;;;;;;5039262;28;20515;-85
2022/11/09 15:26:37;;;;;;;12.87;9.57;;;9.50;99.90;;;;;;5046973;28;20175;-81
2022/11/09 15:29:28;;;;;;;11.00;9.40;;;9.40;99.90;;;;;;5039235;28;20191;-83
2022/11/09 15:32:10;;;;;;;11.70;9.53;;;9.30;99.90;;;;;;5056482;28;20183;-86
2022/11/09 15:34:52;;;;;;;14.63;10.27;;;9.10;99.90;;;;;;5057447;28;20632;-79
2022/11/09 15:37:30;;;;;;;12.03;9.93;;;9.10;99.90;;;;;;5058055;28;20256;-85
2022/11/09 15:39:57;;;;;;;12.77;10.07;;;8.90;99.90;;;;;;5058945;28;20176;-86
2022/11/09 15:42:25;;;;;;;11.90;9.13;;;9.00;99.90;;;;;;5057999;28;20170;-86
2022/11/09 15:44:55;;;;;;;11.30;9.27;;;8.90;99.90;;;;;;5058558;28;20184;-86
2022/11/09 15:47:23;;;;;;;11.90;10.10;;;8.80;99.90;;;;;;5038889;28;20175;-86
2022/11/09 15:49:49;;;;;;;11.77;9.77;;;8.80;99.90;;;;;;5059081;28;20201;-85
2022/11/09 15:52:15;;;;;;;13.07;10.13;;;8.70;99.90;;;;;;5063270;28;20257;-83
2022/11/09 15:54:41;;;;;;;11.43;9.40;;;8.60;99.90;;;;;;5057610;28;20243;-84
2022/11/09 15:57:13;;;;;;;13.37;9.90;;;8.70;99.90;;;;;;5056425;28;20196;-84
2022/11/09 15:59:39;;;;;;;13.73;9.60;;;8.70;99.90;;;;;;5056437;28;20167;-83
2022/11/09 16:02:05;;;;;;;13.73;10.47;;;8.40;99.90;;;;;;5038268;28;20954;-80
2022/11/09 16:04:31;;;;;;;13.57;10.17;;;8.30;99.90;;;;;;5044741;28;20188;-86
2022/11/09 16:06:57;;;;;;;13.17;10.30;;;8.30;99.90;;;;;;5062108;28;20251;-84
2022/11/09 16:09:23;;;;;;;12.47;9.83;;;8.30;99.90;;;;;;5049397;28;20292;-83
2022/11/09 16:11:49;;;;;;;13.37;9.57;;;8.40;99.90;;;;;;5059533;28;20172;-89
2022/11/09 16:14:16;;;;;;;12.97;10.13;;;8.40;99.90;;;;;;5041394;28;20261;-85
2022/11/09 16:16:42;;;;;;;14.10;9.93;;;8.40;99.90;;;;;;5056195;28;20208;-88
2022/11/09 16:19:13;;;;;;;14.20;10.20;;;8.50;99.90;;;;;;5038508;28;20180;-87
2022/11/09 16:21:39;;;;;;;12.60;9.87;;;8.50;99.90;;;;;;5056870;28;20173;-89
2022/11/09 16:24:05;;;;;;;12.43;9.80;;;8.50;99.90;;;;;;5056750;28;20189;-88
2022/11/09 16:26:31;;;;;;;13.07;9.90;;;8.30;99.90;;;;;;5057596;28;20182;-87
2022/11/09 16:28:58;;;;;;;13.33;10.03;;;8.40;99.90;;;;;;5068369;28;20267;-88
2022/11/09 16:31:24;;;;;;;12.27;10.80;;;8.50;99.90;;;;;;5069437;28;20632;-85
2022/11/09 16:33:50;;;;;;;15.63;10.43;;;8.40;99.90;;;;;;5056769;28;20172;-86
2022/11/09 16:36:22;;;;;;;15.43;11.30;;;8.40;99.90;;;;;;5055441;28;20216;-87
2022/11/09 16:38:51;;;;;;;12.53;10.00;;;8.30;99.90;;;;;;5059710;28;20176;-86
2022/11/09 16:41:19;;;;;;;17.10;10.80;;;8.30;99.90;;;;;;5052336;28;20210;-88
2022/11/09 16:43:47;;;;;;;13.67;10.57;;;8.40;99.90;;;;;;5060809;28;20171;-88
2022/11/09 16:46:19;;;;;;;14.13;10.63;;;8.50;99.90;;;;;;5055562;28;20298;-80
2022/11/09 16:48:46;;;;;;;12.40;9.97;;;8.40;99.90;;;;;;5054693;28;20624;-81
2022/11/09 16:51:12;;;;;;;14.70;10.90;;;8.50;99.90;;;;;;5055332;28;20718;-88
2022/11/09 16:53:37;;;;;;;14.20;11.33;;;8.50;99.90;;;;;;5055651;28;20181;-86
2022/11/09 16:56:04;;;;;;;16.13;11.50;;;8.40;99.90;;;;;;5037735;28;20216;-88
2022/11/09 16:58:31;;;;;;;15.27;10.93;;;8.40;99.90;;;;;;5055802;28;20687;-86
2022/11/09 17:00:58;;;;;;;13.93;11.23;;;8.40;99.90;;;;;;5055745;28;20716;-87
2022/11/09 17:03:24;;;;;;;16.30;11.53;;;8.40;99.90;;;;;;5041528;28;20180;-88
2022/11/09 17:05:50;;;;;;;14.30;11.37;;;8.30;99.90;;;;;;5068065;28;20209;-87
2022/11/09 17:08:17;;;;;;;14.90;10.60;;;8.30;99.90;;;;;;5057755;28;20183;-87
2022/11/09 17:10:46;;;;;;;16.13;11.30;;;8.40;99.90;;;;;;5038209;28;20185;-86
2022/11/09 17:13:12;;;;;;;15.80;11.20;;;8.40;99.90;;;;;;5055019;28;20176;-82
2022/11/09 17:15:43;;;;;;;16.57;11.63;;;8.40;99.90;;;;;;5038323;28;20588;-85
2022/11/09 17:18:10;;;;;;;16.97;11.47;;;8.40;99.90;;;;;;5039007;28;20185;-84
2022/11/09 17:20:44;;;;;;;15.13;11.57;;;8.30;99.90;;;;;;5055035;28;20172;-85
2022/11/09 17:23:10;;;;;;;16.23;11.53;;;8.30;99.90;;;;;;5054820;28;20172;-87
2022/11/09 17:25:36;;;;;;;16.00;11.67;;;8.40;99.90;;;;;;5054650;28;20182;-86
2022/11/09 17:28:04;;;;;;;17.10;11.87;;;8.40;99.90;;;;;;5055246;28;20747;-89
2022/11/09 17:30:31;;;;;;;16.87;11.87;;;8.40;99.90;;;;;;5038300;28;20204;-83
2022/11/09 17:32:57;;;;;;;16.17;11.63;;;8.40;99.90;;;;;;5055001;28;20180;-87
2022/11/09 17:35:24;;;;;;;15.60;11.10;;;8.40;99.90;;;;;;5055454;28;20212;-86
2022/11/09 17:37:51;;;;;;;15.53;11.83;;;8.40;99.90;;;;;;5055027;28;20177;-87
2022/11/09 17:40:20;;;;;;;17.93;12.80;;;8.50;99.90;;;;;;5040107;28;20227;-87
2022/11/09 17:42:46;;;;;;;14.90;11.50;;;8.50;99.90;;;;;;5056935;28;20179;-87
2022/11/09 17:45:12;;;;;;;15.60;12.17;;;8.40;99.90;;;;;;5054589;28;20538;-87
2022/11/09 17:47:38;;;;;;;19.60;13.53;;;8.30;99.90;;;;;;5056816;28;20256;-85
2022/11/09 17:50:04;;;;;;;18.23;12.73;;;8.20;99.90;;;;;;5062393;28;20187;-88
2022/11/09 17:52:30;;;;;;;17.37;11.77;;;8.30;99.90;;;;;;5074399;28;20172;-88
2022/11/09 17:54:57;;;;;;;16.90;12.90;;;8.40;99.90;;;;;;5057930;28;20219;-85
2022/11/09 17:57:23;;;;;;;16.30;11.57;;;8.40;99.90;;;;;;5061415;28;20178;-86
2022/11/09 17:59:48;;;;;;;16.23;11.33;;;8.50;99.90;;;;;;5059761;28;20179;-84
2022/11/09 18:02:15;;;;;;;14.77;10.97;;;8.50;99.90;;;;;;5061407;28;20258;-85
2022/11/09 18:04:42;;;;;;;13.83;11.60;;;8.30;99.90;;;;;;5058753;28;20177;-83
2022/11/09 18:07:10;;;;;;;12.00;10.70;;;8.10;99.90;;;;;;5059050;28;20323;-86
2022/11/09 18:09:37;;;;;;;15.27;11.07;;;8.00;99.90;;;;;;5055346;28;20265;-87
2022/11/09 18:12:04;;;;;;;16.07;11.07;;;7.90;99.90;;;;;;5064934;28;20191;-90
2022/11/09 18:14:31;;;;;;;15.20;10.87;;;7.80;99.90;;;;;;5053978;28;20248;-87
2022/11/09 18:17:00;;;;;;;16.93;12.00;;;7.70;99.90;;;;;;5053834;28;20213;-87
2022/11/09 18:19:26;;;;;;;16.60;12.20;;;7.70;99.90;;;;;;5054853;28;20202;-86
2022/11/09 18:21:52;;;;;;;17.80;12.13;;;7.60;99.90;;;;;;5060361;28;20187;-87
2022/11/09 18:24:18;;;;;;;20.00;12.17;;;7.70;99.90;;;;;;5059839;28;20260;-83
2022/11/09 18:26:44;;;;;;;18.73;12.67;;;7.80;99.90;;;;;;5036478;28;20243;-82
2022/11/09 18:29:10;;;;;;;18.47;12.70;;;7.90;99.90;;;;;;5053015;28;20184;-81
2022/11/09 18:31:36;;;;;;;18.27;12.30;;;8.10;99.90;;;;;;5034758;28;20184;-81
2022/11/09 18:34:03;;;;;;;19.40;12.30;;;8.10;99.90;;;;;;5053882;28;20293;-83
2022/11/09 18:36:29;;;;;;;18.37;13.07;;;8.20;99.90;;;;;;5052777;28;20307;-86
2022/11/09 18:38:57;;;;;;;16.77;11.93;;;8.20;99.90;;;;;;5035178;28;20190;-83
2022/11/09 18:41:24;;;;;;;17.70;13.50;;;8.20;99.90;;;;;;5056506;28;20249;-80
2022/11/09 18:43:52;;;;;;;19.90;13.37;;;8.10;99.90;;;;;;5063405;28;20190;-84
2022/11/09 18:46:20;;;;;;;20.50;13.27;;;8.00;99.90;;;;;;5058166;28;20175;-83
2022/11/09 18:48:53;;;;;;;19.07;13.00;;;8.00;99.90;;;;;;5055493;28;20234;-83
2022/11/09 18:51:19;;;;;;;19.23;13.23;;;7.90;99.90;;;;;;5054445;28;20216;-83
2022/11/09 18:53:46;;;;;;;19.50;13.23;;;7.90;99.90;;;;;;5053721;28;20195;-84
2022/11/09 18:56:21;;;;;;;19.57;13.43;;;7.90;99.90;;;;;;5052986;28;20384;-86
2022/11/09 18:58:51;;;;;;;21.10;13.73;;;7.90;99.90;;;;;;5055415;28;20263;-85
2022/11/09 19:01:18;;;;;;;22.40;14.13;;;7.90;99.90;;;;;;5057149;28;20175;-86
2022/11/09 19:03:45;;;;;;;18.77;13.07;;;7.80;99.90;;;;;;5040028;28;20976;-86
2022/11/09 19:06:29;;;;;;;;;;;;;;;;;;;;;
2022/11/09 19:11:40;;;;;;;18.37;12.77;;;7.90;99.90;;;;;;5056655;28;20188;-81
2022/11/09 19:14:07;;;;;;;21.70;14.20;;;7.90;99.90;;;;;;5056564;28;20216;-83
2022/11/09 19:16:34;;;;;;;19.40;13.37;;;7.70;99.90;;;;;;5038894;28;20235;-82
2022/11/09 19:19:01;;;;;;;21.63;16.13;;;7.80;99.90;;;;;;5062976;28;20212;-82
2022/11/09 19:21:38;;;;;;;21.20;14.70;;;7.90;99.90;;;;;;5048215;28;20776;-87
2022/11/09 19:24:06;;;;;;;20.97;14.13;;;7.80;99.90;;;;;;5041536;28;20184;-87
2022/11/09 19:26:34;;;;;;;20.23;13.60;;;7.70;99.90;;;;;;5040150;28;20211;-82